Greeley, CO

11:16 AM MDT on October 01, 2014 (GMT -0600)
Dos Rios IP | Change Station
CLOSE
Current Station
Personal Weather Station
Location: Greeley, CO
Elevation: 1432 m
Nearby Weather Stations

Elev 1432 m 40.35 °N, 104.76 °W | Updated 12 minutes ago

Partly Cloudy
Partly Cloudy
15.7 °C
Feels Like 15.7 °C
N
4.8
Wind Variable Wind from ENE

Today
High -- | Low -- °C
--% Chance of Precip.
Yesterday
High -- | Low -- °C
Precip. -- mm
6:55 AM 6:40 PM
Waxing Crescent, 49% visible
Pressure 1012 hPa
Visibility 16.1 kilometers
Clouds Clear
Dew Point 8 °C
Humidity 59%
Rainfall 0 mm
Snow Depth 0 in , 0 in , 4 in
UV 4.2 out of 12
Pollen 3.40 out of 12
Ozone Good
PM2.5 Good
Flu Activity Not available.
METAR KGXY 011655Z AUTO 12009KT 10SM CLR 17/06 A2990 RMK AO1

More Conditions Fewer Conditions

Pressure 1012 hPa
Visibility 16.1 kilometers
Clouds Clear
Dew Point 8 °C
Humidity 59%
Rainfall 0 mm
Snow Depth 0 in , 0 in , 4 in
UV 4.2 out of 12
Pollen 3.40 out of 12
Ozone Good
PM2.5 Good
Flu Activity Not available.
METAR KGXY 011655Z AUTO 12009KT 10SM CLR 17/06 A2990 RMK AO1

More Conditions Fewer Conditions

10-Day Weather Forecast

Almanac

Astronomy

Oct. 01, 2014 Rise Set
Actual Time 6:55 AM MDT 6:40 PM MDT
Civil Twilight 6:28 AM MDT 7:08 PM MDT
Nautical Twilight 5:56 AM MDT 7:39 PM MDT
Astronomical Twilight 5:24 AM MDT 8:11 PM MDT
Moon 1:59 PM MDT No Moon Set
Length of Visible Light 12h 39m
Length of Day
11h 45m
Tomorrow will be 2m 38s shorter.
Waxing Crescent, 49% of the Moon is Illuminated
Today
Waxing Crescent
Oct 1
First Quarter
Oct 8
Full
Oct 15
Last Quarter
Oct 23
New

Today's Extremes

State Highs State Lows

Community

WunderPhotos

Upload Photos

1,757,986 photos uploaded!

WunderBlogs® & News

By Dr. Jeff Masters
Director of Meteorology, Weather Underground
By Kari Strenfel
Meteorologist, Weather Underground
By Christopher C. Burt
Weather Historian, Weather Underground
October 1, 2014
October 1, 2014
October 1, 2014

Nearby

Air Quality

  Air Quality AQ Index Pollutant
Yesterday Good
OZONE
Current Good
PM2.5
Current Good
OZONE
Wednesday Good
PM2.5
Wednesday Good
OZONE

Snow Depth

Station Depth Elevation
Elk River 0 in 8700 ft
Wild Basin 0 in 9560 ft
Rawah 4 in 9020 ft
Medano Pass 0 in 9620 ft
Idarado 0 in 9800 ft

Earthquake Activity

City Distance Mag. Time & Date
No recent earthquake activity has been reported nearby.
Minimum magnitude displayed is 2.5.

Coastal Water Temperatures

Place Temperature
No Stations Reporting

Nearby Weather Stations